sensor_id;sensor_type;location;lat;lon;timestamp;P1;durP1;ratioP1;P2;durP2;ratioP2
34019;SDS011;20895;51.034;3.742;2023-05-07T00:02:06;10.07;;;3.67;;
34019;SDS011;20895;51.034;3.742;2023-05-07T00:04:32;8.98;;;3.67;;
34019;SDS011;20895;51.034;3.742;2023-05-07T00:07:02;9.32;;;3.95;;
34019;SDS011;20895;51.034;3.742;2023-05-07T00:09:27;11.73;;;3.80;;
34019;SDS011;20895;51.034;3.742;2023-05-07T00:11:52;9.18;;;3.53;;
34019;SDS011;20895;51.034;3.742;2023-05-07T00:14:17;9.68;;;3.53;;
34019;SDS011;20895;51.034;3.742;2023-05-07T00:16:43;10.70;;;3.03;;
34019;SDS011;20895;51.034;3.742;2023-05-07T00:19:08;11.73;;;3.92;;
34019;SDS011;20895;51.034;3.742;2023-05-07T00:21:34;7.70;;;3.33;;
34019;SDS011;20895;51.034;3.742;2023-05-07T00:23:59;10.45;;;4.35;;
34019;SDS011;20895;51.034;3.742;2023-05-07T00:26:24;11.90;;;3.97;;
34019;SDS011;20895;51.034;3.742;2023-05-07T00:28:49;9.30;;;3.92;;
34019;SDS011;20895;51.034;3.742;2023-05-07T00:31:15;7.75;;;3.33;;
34019;SDS011;20895;51.034;3.742;2023-05-07T00:33:40;8.63;;;3.58;;
34019;SDS011;20895;51.034;3.742;2023-05-07T00:36:05;10.93;;;3.55;;
34019;SDS011;20895;51.034;3.742;2023-05-07T00:38:31;7.00;;;3.42;;
34019;SDS011;20895;51.034;3.742;2023-05-07T00:40:56;10.25;;;3.50;;
34019;SDS011;20895;51.034;3.742;2023-05-07T00:43:21;8.30;;;4.30;;
34019;SDS011;20895;51.034;3.742;2023-05-07T00:45:46;9.27;;;3.85;;
34019;SDS011;20895;51.034;3.742;2023-05-07T00:48:12;9.77;;;3.65;;
34019;SDS011;20895;51.034;3.742;2023-05-07T00:50:37;10.23;;;3.28;;
34019;SDS011;20895;51.034;3.742;2023-05-07T00:53:03;10.32;;;3.47;;
34019;SDS011;20895;51.034;3.742;2023-05-07T00:55:28;12.80;;;3.35;;
34019;SDS011;20895;51.034;3.742;2023-05-07T00:57:54;9.43;;;3.65;;
34019;SDS011;20895;51.034;3.742;2023-05-07T01:00:19;9.88;;;3.67;;
34019;SDS011;20895;51.034;3.742;2023-05-07T01:02:45;10.75;;;3.30;;
34019;SDS011;20895;51.034;3.742;2023-05-07T01:05:12;9.35;;;3.78;;
34019;SDS011;20895;51.034;3.742;2023-05-07T01:07:38;6.15;;;3.10;;
34019;SDS011;20895;51.034;3.742;2023-05-07T01:10:05;12.63;;;3.35;;
34019;SDS011;20895;51.034;3.742;2023-05-07T01:12:31;10.98;;;3.67;;
34019;SDS011;20895;51.034;3.742;2023-05-07T01:14:57;9.88;;;3.67;;
34019;SDS011;20895;51.034;3.742;2023-05-07T01:17:22;10.02;;;3.10;;
34019;SDS011;20895;51.034;3.742;2023-05-07T01:19:48;12.18;;;3.78;;
34019;SDS011;20895;51.034;3.742;2023-05-07T01:22:14;10.70;;;3.40;;
34019;SDS011;20895;51.034;3.742;2023-05-07T01:24:41;7.00;;;3.03;;
34019;SDS011;20895;51.034;3.742;2023-05-07T01:27:06;9.48;;;3.85;;
34019;SDS011;20895;51.034;3.742;2023-05-07T01:29:31;12.60;;;4.13;;
34019;SDS011;20895;51.034;3.742;2023-05-07T01:31:57;7.32;;;3.45;;
34019;SDS011;20895;51.034;3.742;2023-05-07T01:34:23;10.20;;;4.10;;
34019;SDS011;20895;51.034;3.742;2023-05-07T01:36:50;10.43;;;3.63;;
34019;SDS011;20895;51.034;3.742;2023-05-07T01:39:16;11.13;;;4.07;;
34019;SDS011;20895;51.034;3.742;2023-05-07T01:41:41;9.60;;;4.18;;
34019;SDS011;20895;51.034;3.742;2023-05-07T01:44:10;8.38;;;3.95;;
34019;SDS011;20895;51.034;3.742;2023-05-07T01:46:37;8.90;;;4.15;;
34019;SDS011;20895;51.034;3.742;2023-05-07T01:49:02;9.70;;;4.13;;
34019;SDS011;20895;51.034;3.742;2023-05-07T01:51:28;9.10;;;4.05;;
34019;SDS011;20895;51.034;3.742;2023-05-07T01:53:53;12.77;;;4.22;;
34019;SDS011;20895;51.034;3.742;2023-05-07T01:56:19;10.00;;;4.68;;
34019;SDS011;20895;51.034;3.742;2023-05-07T01:58:45;7.68;;;3.97;;
34019;SDS011;20895;51.034;3.742;2023-05-07T02:01:13;12.15;;;4.15;;
34019;SDS011;20895;51.034;3.742;2023-05-07T02:03:39;10.13;;;4.47;;
34019;SDS011;20895;51.034;3.742;2023-05-07T02:06:04;8.00;;;4.10;;
34019;SDS011;20895;51.034;3.742;2023-05-07T02:08:29;14.57;;;4.88;;
34019;SDS011;20895;51.034;3.742;2023-05-07T02:10:55;8.82;;;4.07;;
34019;SDS011;20895;51.034;3.742;2023-05-07T02:13:20;8.40;;;4.20;;
34019;SDS011;20895;51.034;3.742;2023-05-07T02:15:47;10.18;;;4.75;;
34019;SDS011;20895;51.034;3.742;2023-05-07T02:18:15;10.93;;;4.25;;
34019;SDS011;20895;51.034;3.742;2023-05-07T02:20:40;10.50;;;4.35;;
34019;SDS011;20895;51.034;3.742;2023-05-07T02:23:06;10.07;;;4.90;;
34019;SDS011;20895;51.034;3.742;2023-05-07T02:25:31;9.50;;;4.75;;
34019;SDS011;20895;51.034;3.742;2023-05-07T02:27:56;12.55;;;4.28;;
34019;SDS011;20895;51.034;3.742;2023-05-07T02:30:22;10.43;;;4.18;;
34019;SDS011;20895;51.034;3.742;2023-05-07T02:32:50;10.65;;;4.50;;
34019;SDS011;20895;51.034;3.742;2023-05-07T02:35:16;13.32;;;5.65;;
34019;SDS011;20895;51.034;3.742;2023-05-07T02:37:41;13.18;;;4.97;;
34019;SDS011;20895;51.034;3.742;2023-05-07T02:40:06;13.43;;;5.65;;
34019;SDS011;20895;51.034;3.742;2023-05-07T02:42:32;11.50;;;5.00;;
34019;SDS011;20895;51.034;3.742;2023-05-07T02:44:57;11.55;;;5.80;;
34019;SDS011;20895;51.034;3.742;2023-05-07T02:47:22;11.27;;;4.40;;
34019;SDS011;20895;51.034;3.742;2023-05-07T02:49:48;10.55;;;4.90;;
34019;SDS011;20895;51.034;3.742;2023-05-07T02:52:13;10.93;;;5.03;;
34019;SDS011;20895;51.034;3.742;2023-05-07T02:54:39;10.00;;;4.53;;
34019;SDS011;20895;51.034;3.742;2023-05-07T02:57:04;10.95;;;4.88;;
34019;SDS011;20895;51.034;3.742;2023-05-07T02:59:29;9.65;;;4.78;;
34019;SDS011;20895;51.034;3.742;2023-05-07T03:01:55;7.75;;;4.03;;
34019;SDS011;20895;51.034;3.742;2023-05-07T03:04:20;10.77;;;4.43;;
34019;SDS011;20895;51.034;3.742;2023-05-07T03:06:45;19.00;;;6.13;;
34019;SDS011;20895;51.034;3.742;2023-05-07T03:09:11;10.70;;;5.40;;
34019;SDS011;20895;51.034;3.742;2023-05-07T03:11:37;10.57;;;4.97;;
34019;SDS011;20895;51.034;3.742;2023-05-07T03:14:02;7.70;;;4.22;;
34019;SDS011;20895;51.034;3.742;2023-05-07T03:16:27;11.45;;;4.68;;
34019;SDS011;20895;51.034;3.742;2023-05-07T03:18:53;9.55;;;4.93;;
34019;SDS011;20895;51.034;3.742;2023-05-07T03:21:18;11.15;;;4.63;;
34019;SDS011;20895;51.034;3.742;2023-05-07T03:23:43;11.13;;;4.68;;
34019;SDS011;20895;51.034;3.742;2023-05-07T03:26:08;11.93;;;4.90;;
34019;SDS011;20895;51.034;3.742;2023-05-07T03:28:34;11.23;;;4.97;;
34019;SDS011;20895;51.034;3.742;2023-05-07T03:30:59;12.55;;;4.85;;
34019;SDS011;20895;51.034;3.742;2023-05-07T03:33:25;9.70;;;4.78;;
34019;SDS011;20895;51.034;3.742;2023-05-07T03:35:53;9.05;;;5.25;;
34019;SDS011;20895;51.034;3.742;2023-05-07T03:38:18;10.98;;;5.82;;
34019;SDS011;20895;51.034;3.742;2023-05-07T03:40:43;14.50;;;6.10;;
34019;SDS011;20895;51.034;3.742;2023-05-07T03:43:09;11.27;;;5.13;;
34019;SDS011;20895;51.034;3.742;2023-05-07T03:45:34;11.43;;;5.10;;
34019;SDS011;20895;51.034;3.742;2023-05-07T03:48:00;10.82;;;4.72;;
34019;SDS011;20895;51.034;3.742;2023-05-07T03:50:25;16.90;;;6.03;;
34019;SDS011;20895;51.034;3.742;2023-05-07T03:52:50;12.45;;;5.03;;
34019;SDS011;20895;51.034;3.742;2023-05-07T03:55:15;8.27;;;5.10;;
34019;SDS011;20895;51.034;3.742;2023-05-07T03:57:41;10.20;;;5.03;;
34019;SDS011;20895;51.034;3.742;2023-05-07T04:00:06;12.77;;;5.68;;
34019;SDS011;20895;51.034;3.742;2023-05-07T04:02:32;11.57;;;5.03;;
34019;SDS011;20895;51.034;3.742;2023-05-07T04:04:58;13.65;;;5.70;;
34019;SDS011;20895;51.034;3.742;2023-05-07T04:07:23;7.72;;;4.82;;
34019;SDS011;20895;51.034;3.742;2023-05-07T04:09:48;9.95;;;5.15;;
34019;SDS011;20895;51.034;3.742;2023-05-07T04:12:14;15.25;;;5.38;;
34019;SDS011;20895;51.034;3.742;2023-05-07T04:14:39;17.25;;;6.25;;
34019;SDS011;20895;51.034;3.742;2023-05-07T04:17:05;8.80;;;5.65;;
34019;SDS011;20895;51.034;3.742;2023-05-07T04:19:32;8.82;;;4.95;;
34019;SDS011;20895;51.034;3.742;2023-05-07T04:21:58;10.45;;;5.45;;
34019;SDS011;20895;51.034;3.742;2023-05-07T04:24:23;11.32;;;6.82;;
34019;SDS011;20895;51.034;3.742;2023-05-07T04:26:48;10.55;;;4.45;;
34019;SDS011;20895;51.034;3.742;2023-05-07T04:29:14;12.75;;;5.25;;
34019;SDS011;20895;51.034;3.742;2023-05-07T04:31:39;14.48;;;5.38;;
34019;SDS011;20895;51.034;3.742;2023-05-07T04:34:04;14.05;;;5.53;;
34019;SDS011;20895;51.034;3.742;2023-05-07T04:36:30;11.45;;;6.18;;
34019;SDS011;20895;51.034;3.742;2023-05-07T04:38:55;17.88;;;5.78;;
34019;SDS011;20895;51.034;3.742;2023-05-07T04:41:21;8.57;;;4.93;;
34019;SDS011;20895;51.034;3.742;2023-05-07T04:43:46;16.75;;;5.43;;
34019;SDS011;20895;51.034;3.742;2023-05-07T04:46:11;16.90;;;7.28;;
34019;SDS011;20895;51.034;3.742;2023-05-07T04:48:37;11.05;;;5.32;;
34019;SDS011;20895;51.034;3.742;2023-05-07T04:51:02;12.07;;;6.95;;
34019;SDS011;20895;51.034;3.742;2023-05-07T04:53:27;9.93;;;5.22;;
34019;SDS011;20895;51.034;3.742;2023-05-07T04:55:56;11.98;;;5.28;;
34019;SDS011;20895;51.034;3.742;2023-05-07T04:58:22;10.75;;;5.40;;
34019;SDS011;20895;51.034;3.742;2023-05-07T05:00:47;8.68;;;4.63;;
34019;SDS011;20895;51.034;3.742;2023-05-07T05:03:12;10.90;;;6.25;;
34019;SDS011;20895;51.034;3.742;2023-05-07T05:05:38;12.57;;;5.03;;
34019;SDS011;20895;51.034;3.742;2023-05-07T05:08:03;14.38;;;5.60;;
34019;SDS011;20895;51.034;3.742;2023-05-07T05:10:28;18.00;;;7.50;;
34019;SDS011;20895;51.034;3.742;2023-05-07T05:12:53;8.98;;;5.32;;
34019;SDS011;20895;51.034;3.742;2023-05-07T05:15:19;12.95;;;6.18;;
34019;SDS011;20895;51.034;3.742;2023-05-07T05:17:44;12.57;;;5.68;;
34019;SDS011;20895;51.034;3.742;2023-05-07T05:20:10;14.65;;;5.25;;
34019;SDS011;20895;51.034;3.742;2023-05-07T05:22:39;12.30;;;5.55;;
34019;SDS011;20895;51.034;3.742;2023-05-07T05:25:04;9.65;;;5.18;;
34019;SDS011;20895;51.034;3.742;2023-05-07T05:27:30;8.85;;;4.38;;
34019;SDS011;20895;51.034;3.742;2023-05-07T05:29:55;9.98;;;4.72;;
34019;SDS011;20895;51.034;3.742;2023-05-07T05:32:20;10.65;;;4.80;;
34019;SDS011;20895;51.034;3.742;2023-05-07T05:34:45;11.73;;;5.00;;
34019;SDS011;20895;51.034;3.742;2023-05-07T05:37:11;11.40;;;4.72;;
34019;SDS011;20895;51.034;3.742;2023-05-07T05:39:36;12.98;;;5.53;;
34019;SDS011;20895;51.034;3.742;2023-05-07T05:42:01;9.50;;;5.20;;
34019;SDS011;20895;51.034;3.742;2023-05-07T05:44:27;9.23;;;4.20;;
34019;SDS011;20895;51.034;3.742;2023-05-07T05:46:52;9.85;;;5.47;;
34019;SDS011;20895;51.034;3.742;2023-05-07T05:49:20;10.23;;;5.00;;
34019;SDS011;20895;51.034;3.742;2023-05-07T05:51:45;10.00;;;4.90;;
34019;SDS011;20895;51.034;3.742;2023-05-07T05:54:10;10.70;;;4.40;;
34019;SDS011;20895;51.034;3.742;2023-05-07T05:56:36;11.55;;;4.88;;
34019;SDS011;20895;51.034;3.742;2023-05-07T05:59:01;14.35;;;5.38;;
34019;SDS011;20895;51.034;3.742;2023-05-07T06:01:27;11.55;;;5.50;;
34019;SDS011;20895;51.034;3.742;2023-05-07T06:03:52;10.43;;;5.30;;
34019;SDS011;20895;51.034;3.742;2023-05-07T06:06:17;13.68;;;6.75;;
34019;SDS011;20895;51.034;3.742;2023-05-07T06:08:42;10.15;;;6.05;;
34019;SDS011;20895;51.034;3.742;2023-05-07T06:11:08;10.88;;;5.13;;
34019;SDS011;20895;51.034;3.742;2023-05-07T06:13:33;8.95;;;5.68;;
34019;SDS011;20895;51.034;3.742;2023-05-07T06:15:58;8.75;;;5.45;;
34019;SDS011;20895;51.034;3.742;2023-05-07T06:18:24;9.85;;;5.78;;
34019;SDS011;20895;51.034;3.742;2023-05-07T06:20:50;12.02;;;6.15;;
34019;SDS011;20895;51.034;3.742;2023-05-07T06:23:15;12.30;;;5.53;;
34019;SDS011;20895;51.034;3.742;2023-05-07T06:25:40;12.93;;;5.78;;
34019;SDS011;20895;51.034;3.742;2023-05-07T06:28:05;9.48;;;5.07;;
34019;SDS011;20895;51.034;3.742;2023-05-07T06:30:31;10.18;;;5.40;;
34019;SDS011;20895;51.034;3.742;2023-05-07T06:32:56;9.30;;;5.53;;
34019;SDS011;20895;51.034;3.742;2023-05-07T06:35:21;10.20;;;5.85;;
34019;SDS011;20895;51.034;3.742;2023-05-07T06:37:46;13.90;;;6.28;;
34019;SDS011;20895;51.034;3.742;2023-05-07T06:40:12;8.70;;;5.25;;
34019;SDS011;20895;51.034;3.742;2023-05-07T06:42:37;9.65;;;4.75;;
34019;SDS011;20895;51.034;3.742;2023-05-07T06:45:03;8.05;;;5.28;;
34019;SDS011;20895;51.034;3.742;2023-05-07T06:47:28;9.70;;;5.65;;
34019;SDS011;20895;51.034;3.742;2023-05-07T06:49:53;10.07;;;5.95;;
34019;SDS011;20895;51.034;3.742;2023-05-07T06:52:19;10.25;;;5.45;;
34019;SDS011;20895;51.034;3.742;2023-05-07T06:54:44;9.85;;;4.72;;
34019;SDS011;20895;51.034;3.742;2023-05-07T06:57:09;9.88;;;5.22;;
34019;SDS011;20895;51.034;3.742;2023-05-07T06:59:35;9.23;;;4.63;;
34019;SDS011;20895;51.034;3.742;2023-05-07T07:02:00;11.35;;;5.13;;
34019;SDS011;20895;51.034;3.742;2023-05-07T07:04:25;9.98;;;4.25;;
34019;SDS011;20895;51.034;3.742;2023-05-07T07:06:53;10.07;;;4.55;;
34019;SDS011;20895;51.034;3.742;2023-05-07T07:09:19;9.23;;;4.63;;
34019;SDS011;20895;51.034;3.742;2023-05-07T07:11:44;8.15;;;4.25;;
34019;SDS011;20895;51.034;3.742;2023-05-07T07:14:09;9.90;;;4.40;;
34019;SDS011;20895;51.034;3.742;2023-05-07T07:16:34;8.65;;;5.10;;
34019;SDS011;20895;51.034;3.742;2023-05-07T07:19:00;8.30;;;4.75;;
34019;SDS011;20895;51.034;3.742;2023-05-07T07:21:25;13.00;;;5.13;;
34019;SDS011;20895;51.034;3.742;2023-05-07T07:23:50;10.90;;;4.45;;
34019;SDS011;20895;51.034;3.742;2023-05-07T07:26:17;9.43;;;5.20;;
34019;SDS011;20895;51.034;3.742;2023-05-07T07:28:43;14.73;;;4.43;;
34019;SDS011;20895;51.034;3.742;2023-05-07T07:31:08;9.07;;;3.47;;
34019;SDS011;20895;51.034;3.742;2023-05-07T07:33:34;8.18;;;4.55;;
34019;SDS011;20895;51.034;3.742;2023-05-07T07:35:59;9.00;;;3.58;;
34019;SDS011;20895;51.034;3.742;2023-05-07T07:38:24;9.07;;;4.03;;
34019;SDS011;20895;51.034;3.742;2023-05-07T07:40:49;11.88;;;4.90;;
34019;SDS011;20895;51.034;3.742;2023-05-07T07:43:15;10.43;;;6.25;;
34019;SDS011;20895;51.034;3.742;2023-05-07T07:45:40;9.45;;;4.82;;
34019;SDS011;20895;51.034;3.742;2023-05-07T07:48:05;8.75;;;5.28;;
34019;SDS011;20895;51.034;3.742;2023-05-07T07:50:31;10.13;;;5.53;;
34019;SDS011;20895;51.034;3.742;2023-05-07T07:52:56;10.35;;;4.80;;
34019;SDS011;20895;51.034;3.742;2023-05-07T07:55:22;10.70;;;6.10;;
34019;SDS011;20895;51.034;3.742;2023-05-07T07:57:48;10.68;;;4.38;;
34019;SDS011;20895;51.034;3.742;2023-05-07T08:00:14;12.18;;;4.80;;
34019;SDS011;20895;51.034;3.742;2023-05-07T08:02:39;9.05;;;3.55;;
34019;SDS011;20895;51.034;3.742;2023-05-07T08:05:04;10.75;;;4.97;;
34019;SDS011;20895;51.034;3.742;2023-05-07T08:07:30;8.50;;;4.28;;
34019;SDS011;20895;51.034;3.742;2023-05-07T08:09:55;8.88;;;4.53;;
34019;SDS011;20895;51.034;3.742;2023-05-07T08:12:20;9.57;;;4.07;;
34019;SDS011;20895;51.034;3.742;2023-05-07T08:14:46;8.07;;;4.00;;
34019;SDS011;20895;51.034;3.742;2023-05-07T08:17:11;8.60;;;4.57;;
34019;SDS011;20895;51.034;3.742;2023-05-07T08:19:36;7.75;;;4.22;;
34019;SDS011;20895;51.034;3.742;2023-05-07T08:22:02;8.35;;;3.95;;
34019;SDS011;20895;51.034;3.742;2023-05-07T08:24:28;9.95;;;3.83;;
34019;SDS011;20895;51.034;3.742;2023-05-07T08:26:53;7.75;;;4.13;;
34019;SDS011;20895;51.034;3.742;2023-05-07T08:29:18;8.30;;;4.60;;
34019;SDS011;20895;51.034;3.742;2023-05-07T08:31:43;12.73;;;4.72;;
34019;SDS011;20895;51.034;3.742;2023-05-07T08:34:09;12.20;;;5.43;;
34019;SDS011;20895;51.034;3.742;2023-05-07T08:36:34;11.48;;;4.97;;
34019;SDS011;20895;51.034;3.742;2023-05-07T08:38:59;9.20;;;4.25;;
34019;SDS011;20895;51.034;3.742;2023-05-07T08:41:25;8.60;;;4.50;;
34019;SDS011;20895;51.034;3.742;2023-05-07T08:43:50;10.50;;;4.68;;
34019;SDS011;20895;51.034;3.742;2023-05-07T08:46:17;8.75;;;3.90;;
34019;SDS011;20895;51.034;3.742;2023-05-07T08:48:42;7.70;;;4.28;;
34019;SDS011;20895;51.034;3.742;2023-05-07T08:51:08;7.25;;;4.55;;
34019;SDS011;20895;51.034;3.742;2023-05-07T08:53:33;10.55;;;4.90;;
34019;SDS011;20895;51.034;3.742;2023-05-07T08:55:58;10.77;;;4.93;;
34019;SDS011;20895;51.034;3.742;2023-05-07T08:58:24;8.00;;;4.22;;
34019;SDS011;20895;51.034;3.742;2023-05-07T09:00:49;8.95;;;4.53;;
34019;SDS011;20895;51.034;3.742;2023-05-07T09:03:16;8.80;;;4.63;;
34019;SDS011;20895;51.034;3.742;2023-05-07T09:05:42;10.73;;;5.07;;
34019;SDS011;20895;51.034;3.742;2023-05-07T09:08:08;9.52;;;4.43;;
34019;SDS011;20895;51.034;3.742;2023-05-07T09:10:34;6.57;;;3.70;;
34019;SDS011;20895;51.034;3.742;2023-05-07T09:12:59;9.20;;;3.50;;
34019;SDS011;20895;51.034;3.742;2023-05-07T09:15:26;11.00;;;4.18;;
34019;SDS011;20895;51.034;3.742;2023-05-07T09:17:51;10.63;;;4.35;;
34019;SDS011;20895;51.034;3.742;2023-05-07T09:20:16;8.68;;;4.15;;
34019;SDS011;20895;51.034;3.742;2023-05-07T09:22:41;10.40;;;4.00;;
34019;SDS011;20895;51.034;3.742;2023-05-07T09:25:07;8.05;;;3.75;;
34019;SDS011;20895;51.034;3.742;2023-05-07T09:27:34;7.90;;;3.92;;
34019;SDS011;20895;51.034;3.742;2023-05-07T09:30:02;10.75;;;4.15;;
34019;SDS011;20895;51.034;3.742;2023-05-07T09:32:28;10.23;;;4.35;;
34019;SDS011;20895;51.034;3.742;2023-05-07T09:34:55;7.43;;;3.90;;
34019;SDS011;20895;51.034;3.742;2023-05-07T09:37:21;7.88;;;3.65;;
34019;SDS011;20895;51.034;3.742;2023-05-07T09:39:47;9.25;;;4.97;;
34019;SDS011;20895;51.034;3.742;2023-05-07T09:42:12;11.55;;;4.55;;
34019;SDS011;20895;51.034;3.742;2023-05-07T09:44:40;9.80;;;3.60;;
34019;SDS011;20895;51.034;3.742;2023-05-07T09:47:05;8.05;;;2.90;;
34019;SDS011;20895;51.034;3.742;2023-05-07T09:49:33;6.68;;;2.67;;
34019;SDS011;20895;51.034;3.742;2023-05-07T09:51:58;5.57;;;2.55;;
34019;SDS011;20895;51.034;3.742;2023-05-07T09:54:24;5.50;;;3.08;;
34019;SDS011;20895;51.034;3.742;2023-05-07T09:56:51;8.38;;;4.18;;
34019;SDS011;20895;51.034;3.742;2023-05-07T09:59:17;7.75;;;3.85;;
34019;SDS011;20895;51.034;3.742;2023-05-07T10:01:43;8.48;;;3.38;;
34019;SDS011;20895;51.034;3.742;2023-05-07T10:04:10;6.22;;;3.05;;
34019;SDS011;20895;51.034;3.742;2023-05-07T10:06:35;14.85;;;4.05;;
34019;SDS011;20895;51.034;3.742;2023-05-07T10:09:02;10.40;;;3.60;;
34019;SDS011;20895;51.034;3.742;2023-05-07T10:11:27;8.20;;;3.30;;
34019;SDS011;20895;51.034;3.742;2023-05-07T10:13:53;6.63;;;3.20;;
34019;SDS011;20895;51.034;3.742;2023-05-07T10:16:18;3.92;;;2.38;;
34019;SDS011;20895;51.034;3.742;2023-05-07T10:18:44;5.53;;;2.17;;
34019;SDS011;20895;51.034;3.742;2023-05-07T10:21:20;4.40;;;2.10;;
34019;SDS011;20895;51.034;3.742;2023-05-07T10:23:47;8.35;;;2.70;;
34019;SDS011;20895;51.034;3.742;2023-05-07T10:26:14;6.00;;;2.38;;
34019;SDS011;20895;51.034;3.742;2023-05-07T10:28:41;5.82;;;2.47;;
34019;SDS011;20895;51.034;3.742;2023-05-07T10:31:15;9.50;;;2.55;;
34019;SDS011;20895;51.034;3.742;2023-05-07T10:33:42;6.30;;;2.30;;
34019;SDS011;20895;51.034;3.742;2023-05-07T10:36:10;5.95;;;2.90;;
34019;SDS011;20895;51.034;3.742;2023-05-07T10:38:35;5.22;;;1.92;;
34019;SDS011;20895;51.034;3.742;2023-05-07T10:41:01;5.90;;;1.90;;
34019;SDS011;20895;51.034;3.742;2023-05-07T10:43:36;5.63;;;2.45;;
34019;SDS011;20895;51.034;3.742;2023-05-07T10:46:09;5.47;;;2.25;;
34019;SDS011;20895;51.034;3.742;2023-05-07T10:48:46;4.78;;;2.47;;
34019;SDS011;20895;51.034;3.742;2023-05-07T10:51:21;6.93;;;2.20;;
34019;SDS011;20895;51.034;3.742;2023-05-07T10:53:46;4.53;;;2.20;;
34019;SDS011;20895;51.034;3.742;2023-05-07T10:58:43;3.88;;;2.15;;
34019;SDS011;20895;51.034;3.742;2023-05-07T11:01:09;3.63;;;1.80;;
34019;SDS011;20895;51.034;3.742;2023-05-07T11:03:36;4.60;;;2.03;;
34019;SDS011;20895;51.034;3.742;2023-05-07T11:06:21;4.82;;;2.35;;
34019;SDS011;20895;51.034;3.742;2023-05-07T11:11:18;4.63;;;2.10;;
34019;SDS011;20895;51.034;3.742;2023-05-07T11:13:45;3.13;;;2.08;;
34019;SDS011;20895;51.034;3.742;2023-05-07T11:16:21;4.57;;;2.80;;
34019;SDS011;20895;51.034;3.742;2023-05-07T11:18:50;4.80;;;1.83;;
34019;SDS011;20895;51.034;3.742;2023-05-07T11:21:31;3.20;;;1.60;;
34019;SDS011;20895;51.034;3.742;2023-05-07T11:23:57;2.80;;;2.15;;
34019;SDS011;20895;51.034;3.742;2023-05-07T11:26:23;2.30;;;1.70;;
34019;SDS011;20895;51.034;3.742;2023-05-07T11:28:50;2.67;;;1.90;;
34019;SDS011;20895;51.034;3.742;2023-05-07T11:31:17;2.50;;;1.60;;
34019;SDS011;20895;51.034;3.742;2023-05-07T11:33:45;4.72;;;2.17;;
34019;SDS011;20895;51.034;3.742;2023-05-07T11:36:10;3.88;;;2.00;;
34019;SDS011;20895;51.034;3.742;2023-05-07T11:38:36;2.35;;;1.52;;
34019;SDS011;20895;51.034;3.742;2023-05-07T11:41:02;4.50;;;1.65;;
34019;SDS011;20895;51.034;3.742;2023-05-07T11:43:29;3.15;;;1.60;;
34019;SDS011;20895;51.034;3.742;2023-05-07T11:45:55;3.10;;;1.50;;
34019;SDS011;20895;51.034;3.742;2023-05-07T11:48:29;3.40;;;1.48;;
34019;SDS011;20895;51.034;3.742;2023-05-07T11:53:26;4.35;;;2.53;;
34019;SDS011;20895;51.034;3.742;2023-05-07T11:55:52;5.25;;;1.83;;
34019;SDS011;20895;51.034;3.742;2023-05-07T11:58:20;4.18;;;1.63;;
34019;SDS011;20895;51.034;3.742;2023-05-07T12:00:51;4.78;;;2.25;;
34019;SDS011;20895;51.034;3.742;2023-05-07T12:03:16;3.33;;;1.85;;
34019;SDS011;20895;51.034;3.742;2023-05-07T12:05:43;3.78;;;2.22;;
34019;SDS011;20895;51.034;3.742;2023-05-07T12:08:08;4.85;;;2.13;;
34019;SDS011;20895;51.034;3.742;2023-05-07T12:10:33;4.88;;;2.40;;
34019;SDS011;20895;51.034;3.742;2023-05-07T12:12:58;3.25;;;1.92;;
34019;SDS011;20895;51.034;3.742;2023-05-07T12:15:24;4.70;;;2.58;;
34019;SDS011;20895;51.034;3.742;2023-05-07T12:17:49;7.28;;;2.47;;
34019;SDS011;20895;51.034;3.742;2023-05-07T12:20:15;10.00;;;3.22;;
34019;SDS011;20895;51.034;3.742;2023-05-07T12:22:40;5.72;;;2.92;;
34019;SDS011;20895;51.034;3.742;2023-05-07T12:25:06;4.63;;;1.80;;
34019;SDS011;20895;51.034;3.742;2023-05-07T12:27:31;3.85;;;1.90;;
34019;SDS011;20895;51.034;3.742;2023-05-07T12:29:57;9.70;;;2.15;;
34019;SDS011;20895;51.034;3.742;2023-05-07T12:32:22;4.28;;;2.15;;
34019;SDS011;20895;51.034;3.742;2023-05-07T12:34:51;2.60;;;1.63;;
34019;SDS011;20895;51.034;3.742;2023-05-07T12:37:16;2.88;;;1.50;;
34019;SDS011;20895;51.034;3.742;2023-05-07T12:39:47;3.72;;;1.73;;
34019;SDS011;20895;51.034;3.742;2023-05-07T12:42:16;3.83;;;1.67;;
34019;SDS011;20895;51.034;3.742;2023-05-07T12:44:41;4.72;;;1.67;;
34019;SDS011;20895;51.034;3.742;2023-05-07T12:47:10;3.20;;;1.70;;
34019;SDS011;20895;51.034;3.742;2023-05-07T12:49:35;3.38;;;1.95;;
34019;SDS011;20895;51.034;3.742;2023-05-07T12:52:03;3.38;;;1.67;;
34019;SDS011;20895;51.034;3.742;2023-05-07T12:54:32;3.80;;;1.90;;
34019;SDS011;20895;51.034;3.742;2023-05-07T12:57:07;3.83;;;1.85;;
34019;SDS011;20895;51.034;3.742;2023-05-07T12:59:37;3.30;;;1.90;;
34019;SDS011;20895;51.034;3.742;2023-05-07T13:02:03;4.13;;;2.22;;
34019;SDS011;20895;51.034;3.742;2023-05-07T13:04:28;4.75;;;1.55;;
34019;SDS011;20895;51.034;3.742;2023-05-07T13:06:53;5.50;;;1.75;;
34019;SDS011;20895;51.034;3.742;2023-05-07T13:09:19;5.00;;;1.80;;
34019;SDS011;20895;51.034;3.742;2023-05-07T13:11:44;2.88;;;1.70;;
34019;SDS011;20895;51.034;3.742;2023-05-07T13:14:10;6.30;;;2.30;;
34019;SDS011;20895;51.034;3.742;2023-05-07T13:16:35;2.80;;;1.80;;
34019;SDS011;20895;51.034;3.742;2023-05-07T13:19:00;4.20;;;2.10;;
34019;SDS011;20895;51.034;3.742;2023-05-07T13:21:25;4.63;;;2.83;;
34019;SDS011;20895;51.034;3.742;2023-05-07T13:23:51;2.83;;;1.70;;
34019;SDS011;20895;51.034;3.742;2023-05-07T13:26:17;3.88;;;2.40;;
34019;SDS011;20895;51.034;3.742;2023-05-07T13:28:42;3.73;;;2.00;;
34019;SDS011;20895;51.034;3.742;2023-05-07T13:31:08;4.85;;;1.88;;
34019;SDS011;20895;51.034;3.742;2023-05-07T13:33:34;5.38;;;2.25;;
34019;SDS011;20895;51.034;3.742;2023-05-07T13:36:00;3.50;;;2.00;;
34019;SDS011;20895;51.034;3.742;2023-05-07T13:38:25;3.47;;;2.08;;
34019;SDS011;20895;51.034;3.742;2023-05-07T13:40:51;4.05;;;2.10;;
34019;SDS011;20895;51.034;3.742;2023-05-07T13:43:16;3.03;;;1.70;;
34019;SDS011;20895;51.034;3.742;2023-05-07T13:45:42;3.53;;;1.73;;
34019;SDS011;20895;51.034;3.742;2023-05-07T13:48:07;6.30;;;4.28;;
34019;SDS011;20895;51.034;3.742;2023-05-07T13:50:33;2.80;;;1.83;;
34019;SDS011;20895;51.034;3.742;2023-05-07T13:52:58;3.17;;;1.60;;
34019;SDS011;20895;51.034;3.742;2023-05-07T13:55:24;3.75;;;1.83;;
34019;SDS011;20895;51.034;3.742;2023-05-07T13:58:00;3.20;;;1.90;;
34019;SDS011;20895;51.034;3.742;2023-05-07T14:00:25;2.85;;;2.33;;
34019;SDS011;20895;51.034;3.742;2023-05-07T14:02:51;4.03;;;1.92;;
34019;SDS011;20895;51.034;3.742;2023-05-07T14:05:16;4.45;;;2.00;;
34019;SDS011;20895;51.034;3.742;2023-05-07T14:07:42;7.15;;;5.55;;
34019;SDS011;20895;51.034;3.742;2023-05-07T14:10:07;4.38;;;2.60;;
34019;SDS011;20895;51.034;3.742;2023-05-07T14:12:33;5.93;;;2.70;;
34019;SDS011;20895;51.034;3.742;2023-05-07T14:14:58;4.78;;;1.92;;
34019;SDS011;20895;51.034;3.742;2023-05-07T14:17:24;6.05;;;2.70;;
34019;SDS011;20895;51.034;3.742;2023-05-07T14:19:51;4.80;;;3.05;;
34019;SDS011;20895;51.034;3.742;2023-05-07T14:22:18;3.78;;;2.40;;
34019;SDS011;20895;51.034;3.742;2023-05-07T14:24:44;5.80;;;2.88;;
34019;SDS011;20895;51.034;3.742;2023-05-07T14:27:10;4.32;;;3.03;;
34019;SDS011;20895;51.034;3.742;2023-05-07T14:29:35;5.05;;;3.42;;
34019;SDS011;20895;51.034;3.742;2023-05-07T14:32:01;5.18;;;3.65;;
34019;SDS011;20895;51.034;3.742;2023-05-07T14:34:27;7.53;;;4.68;;
34019;SDS011;20895;51.034;3.742;2023-05-07T14:36:53;6.30;;;4.18;;
34019;SDS011;20895;51.034;3.742;2023-05-07T14:39:18;5.70;;;3.90;;
34019;SDS011;20895;51.034;3.742;2023-05-07T14:41:43;5.25;;;3.80;;
34019;SDS011;20895;51.034;3.742;2023-05-07T14:44:08;6.05;;;4.40;;